Overview Statistics Trail Chart Weather Telemetry Raw packets
 

This is the latest recevied weather packets stored in our database for station/object DF1GD-10. If no packets are shown the sender has not sent any weather packets the latest 10 day(s).

<< 28 29 30 31 32 33 34 >>
Time Temp. Humidity Pressure Rain* Wind** Luminosity Snow
1788030430 20° C 37% 1014.1 hPa - - - -
1788029530 20° C 37% 1014 hPa - - - -
1788028629 20.56° C 35% 1013.9 hPa - - - -
1788027729 20.56° C 35% 1013.8 hPa - - - -
1788026829 21.11° C 34% 1013.9 hPa - - - -
1788025929 21.11° C 34% 1013.8 hPa - - - -
1788025029 21.67° C 32% 1013.8 hPa - - - -
1788024129 22.22° C 31% 1013.9 hPa - - - -
1788022328 22.78° C 29% 1014 hPa - - - -
1788021428 22.78° C 30% 1014 hPa - - - -
1788020528 23.33° C 29% 1014 hPa - - - -
1788019628 22.78° C 29% 1014.1 hPa - - - -
1788018728 22.78° C 28% 1014.2 hPa - - - -
1788017828 23.33° C 27% 1014 hPa - - - -
1788016928 24.44° C 26% 1014.3 hPa - - - -
1788016027 26.11° C 23% 1014.3 hPa - - - -
1788015127 26.67° C 21% 1014.5 hPa - - - -
1788014227 26.11° C 23% 1014.3 hPa - - - -
1788013327 25.56° C 24% 1014.5 hPa - - - -
1788012427 24.44° C 26% 1014.8 hPa - - - -
1788011527 24.44° C 27% 1014.8 hPa - - - -
1788010627 23.33° C 29% 1015 hPa - - - -
1788009726 21.67° C 33% 1014.8 hPa - - - -
1788008826 21.67° C 32% 1014.8 hPa - - - -
1788007926 22.22° C 31% 1014.9 hPa - - - -

* Rain since midnight (hover to see other rain measurements)
** Current wind speed in m/s (hover to see current wind gust speed)